createdAt,value
2019-01-23T00:02:28.529Z,28.27
2019-01-23T00:04:59.483Z,26.10
2019-01-23T00:07:30.403Z,27.67
2019-01-23T00:10:01.297Z,25.90
2019-01-23T00:12:32.249Z,26.90
2019-01-23T00:15:03.142Z,27.00
2019-01-23T00:17:34.030Z,25.43
2019-01-23T00:20:05.635Z,27.53
2019-01-23T00:22:36.537Z,26.47
2019-01-23T00:25:07.851Z,25.17
2019-01-23T00:27:38.854Z,26.20
2019-01-23T00:30:10.010Z,26.80
2019-01-23T00:32:40.897Z,28.30
2019-01-23T00:35:12.055Z,27.33
2019-01-23T00:37:42.995Z,28.03
2019-01-23T00:40:14.183Z,26.20
2019-01-23T00:42:45.132Z,28.73
2019-01-23T00:45:17.319Z,27.80
2019-01-23T00:47:48.219Z,28.17
2019-01-23T00:50:19.267Z,25.97
2019-01-23T00:52:50.159Z,29.17
2019-01-23T00:55:21.103Z,25.03
2019-01-23T00:57:52.047Z,28.40
2019-01-23T01:00:25.658Z,29.20
2019-01-23T01:02:57.421Z,29.70
2019-01-23T01:05:28.318Z,28.23
2019-01-23T01:07:59.219Z,27.27
2019-01-23T01:10:30.197Z,27.23
2019-01-23T01:13:01.093Z,27.60
2019-01-23T01:15:32.274Z,28.07
2019-01-23T01:18:03.292Z,29.10
2019-01-23T01:20:34.194Z,28.87
2019-01-23T01:23:05.096Z,25.80
2019-01-23T01:25:36.044Z,26.77
2019-01-23T01:28:07.108Z,26.67
2019-01-23T01:30:38.010Z,27.60
2019-01-23T01:33:08.999Z,29.00
2019-01-23T01:35:40.201Z,27.47
2019-01-23T01:38:11.162Z,28.40
2019-01-23T01:40:42.157Z,27.80
2019-01-23T01:43:13.054Z,27.40
2019-01-23T01:45:43.966Z,27.30
2019-01-23T01:48:14.930Z,25.87
2019-01-23T01:50:46.176Z,27.20
2019-01-23T01:53:17.164Z,25.70
2019-01-23T01:55:48.144Z,29.77
2019-01-23T01:58:19.118Z,27.63
2019-01-23T02:00:50.020Z,26.90
2019-01-23T02:03:21.034Z,27.70
2019-01-23T02:05:51.944Z,27.27
2019-01-23T02:08:23.161Z,27.80
2019-01-23T02:10:54.496Z,26.20
2019-01-23T02:13:25.408Z,26.40
2019-01-23T02:15:56.352Z,29.23
2019-01-23T02:18:27.446Z,27.37
2019-01-23T02:20:58.474Z,27.07
2019-01-23T02:23:29.379Z,25.87
2019-01-23T02:26:00.335Z,26.40
2019-01-23T02:28:31.227Z,26.10
2019-01-23T02:31:02.409Z,28.10
2019-01-23T02:33:33.331Z,26.70
2019-01-23T02:36:04.226Z,25.10
2019-01-23T02:38:35.163Z,25.10
2019-01-23T02:41:06.129Z,26.07
2019-01-23T02:43:37.029Z,24.50
2019-01-23T02:46:07.934Z,25.90
2019-01-23T02:48:38.882Z,26.17
2019-01-23T02:51:09.787Z,25.13
2019-01-23T02:53:40.978Z,26.37
2019-01-23T02:56:11.929Z,28.47
2019-01-23T02:58:42.821Z,27.37
2019-01-23T03:01:13.726Z,25.70
2019-01-23T03:03:44.665Z,26.53
2019-01-23T03:06:15.571Z,25.87
2019-01-23T03:08:46.466Z,27.27
2019-01-23T03:11:17.478Z,27.43
2019-01-23T03:13:48.525Z,25.93
2019-01-23T03:16:19.439Z,27.57
2019-01-23T03:18:50.484Z,26.57
2019-01-23T03:21:21.450Z,27.50
2019-01-23T03:23:52.549Z,25.37
2019-01-23T03:26:23.501Z,27.50
2019-01-23T03:28:54.406Z,26.53
2019-01-23T03:31:25.672Z,25.30
2019-01-23T03:33:56.714Z,25.63
2019-01-23T03:36:27.605Z,25.10
2019-01-23T03:38:58.512Z,24.70
2019-01-23T03:41:29.476Z,25.60
2019-01-23T03:44:00.747Z,26.80
2019-01-23T03:46:31.657Z,24.03
2019-01-23T03:49:02.594Z,29.50
2019-01-23T03:51:33.790Z,27.20
2019-01-23T03:54:04.994Z,25.70
2019-01-23T03:56:36.012Z,25.10
2019-01-23T03:59:07.009Z,25.97
2019-01-23T04:01:37.908Z,26.53
2019-01-23T04:04:09.056Z,24.17
2019-01-23T04:06:39.949Z,25.80
2019-01-23T04:09:11.084Z,27.00
2019-01-23T04:11:42.354Z,26.50
2019-01-23T04:14:13.570Z,26.43
2019-01-23T04:16:44.457Z,27.03
2019-01-23T04:19:15.412Z,23.67
2019-01-23T04:21:46.388Z,25.40
2019-01-23T04:24:17.294Z,28.90
2019-01-23T04:26:48.540Z,28.37
2019-01-23T04:29:19.508Z,24.50
2019-01-23T04:31:50.413Z,23.87
2019-01-23T04:34:21.367Z,27.20
2019-01-23T04:36:52.268Z,24.97
2019-01-23T04:39:23.238Z,28.00
2019-01-23T04:41:54.313Z,25.37
2019-01-23T04:44:25.508Z,23.97
2019-01-23T04:46:56.402Z,25.10
2019-01-23T04:49:27.340Z,25.93
2019-01-23T04:52:05.742Z,25.00
2019-01-23T04:54:36.807Z,26.83
2019-01-23T04:57:07.748Z,26.53
2019-01-23T04:59:38.663Z,28.23
2019-01-23T05:02:09.606Z,26.67
2019-01-23T05:04:40.584Z,25.80
2019-01-23T05:07:11.491Z,25.07
2019-01-23T05:09:42.437Z,26.10
2019-01-23T05:12:13.352Z,25.93
2019-01-23T05:14:44.852Z,24.60
2019-01-23T05:17:15.801Z,25.57
2019-01-23T05:19:46.700Z,28.20
2019-01-23T05:22:17.650Z,24.97
2019-01-23T05:24:48.904Z,25.97
2019-01-23T05:27:19.967Z,24.87
2019-01-23T05:29:55.055Z,27.63
2019-01-23T05:32:23.531Z,27.27
2019-01-23T05:34:55.079Z,27.20
2019-01-23T05:37:26.028Z,25.87
2019-01-23T05:39:57.016Z,26.90
2019-01-23T05:42:28.071Z,26.63
2019-01-23T05:44:59.218Z,25.90
2019-01-23T05:47:30.396Z,24.70
2019-01-23T05:50:01.296Z,25.43
2019-01-23T05:52:32.258Z,25.47
2019-01-23T05:55:03.752Z,26.60
2019-01-23T05:57:34.646Z,26.83
2019-01-23T06:00:08.558Z,23.77
2019-01-23T06:02:39.747Z,26.00
2019-01-23T06:05:11.674Z,26.97
2019-01-23T06:07:42.624Z,25.70
2019-01-23T06:10:14.147Z,23.90
2019-01-23T06:12:45.346Z,23.83
2019-01-23T06:15:16.701Z,26.97
2019-01-23T06:17:47.677Z,25.60
2019-01-23T06:20:20.286Z,27.03
2019-01-23T06:22:51.849Z,27.13
2019-01-23T06:25:22.864Z,25.07
2019-01-23T06:27:53.756Z,24.27
2019-01-23T06:30:26.927Z,24.23
2019-01-23T06:32:58.137Z,25.90
2019-01-23T06:35:29.385Z,26.50
2019-01-23T06:38:00.371Z,24.90
2019-01-23T06:40:32.398Z,33.20
2019-01-23T06:43:03.343Z,28.00
2019-01-23T06:45:34.656Z,73.53
2019-01-23T06:48:05.673Z,70.80
2019-01-23T06:50:36.569Z,61.53
2019-01-23T06:53:13.823Z,40.00
2019-01-23T06:55:40.421Z,37.03
2019-01-23T06:58:11.680Z,40.90
2019-01-23T07:00:42.967Z,26.47
2019-01-23T07:03:13.915Z,30.10
2019-01-23T07:05:44.879Z,35.20
2019-01-23T07:08:15.785Z,37.80
2019-01-23T07:10:46.697Z,25.73
2019-01-23T07:13:17.642Z,28.33
2019-01-23T07:15:48.566Z,28.20
2019-01-23T07:18:19.491Z,28.30
2019-01-23T07:20:50.723Z,33.60
2019-01-23T07:23:21.705Z,33.20
2019-01-23T07:25:52.606Z,31.33
2019-01-23T07:28:23.535Z,29.40
2019-01-23T07:30:54.444Z,32.57
2019-01-23T07:33:25.324Z,30.77
2019-01-23T07:35:56.272Z,29.70
2019-01-23T07:38:27.184Z,27.90
2019-01-23T07:40:58.167Z,26.57
2019-01-23T07:43:29.123Z,27.70
2019-01-23T07:46:00.434Z,26.67
2019-01-23T07:48:31.462Z,26.47
2019-01-23T07:51:02.416Z,26.87
2019-01-23T07:53:33.610Z,27.87
2019-01-23T07:56:04.607Z,25.93
2019-01-23T07:58:35.566Z,26.57
2019-01-23T08:01:06.487Z,28.00
2019-01-23T08:03:37.692Z,29.43
2019-01-23T08:06:08.684Z,26.47
2019-01-23T08:08:39.582Z,26.57
2019-01-23T08:11:10.501Z,29.53
2019-01-23T08:13:41.518Z,27.53
2019-01-23T08:16:12.499Z,28.90
2019-01-23T08:18:43.407Z,26.47
2019-01-23T08:21:14.484Z,29.87
2019-01-23T08:23:45.697Z,25.20
2019-01-23T08:26:17.020Z,26.50
2019-01-23T08:28:47.954Z,24.53
2019-01-23T08:31:18.903Z,30.00
2019-01-23T08:33:49.933Z,27.03
2019-01-23T08:36:20.867Z,24.80
2019-01-23T08:39:10.675Z,33.53
2019-01-23T08:41:41.887Z,26.40
2019-01-23T08:44:12.822Z,25.43
2019-01-23T08:46:43.776Z,25.10
2019-01-23T08:49:15.080Z,24.90
2019-01-23T08:51:46.323Z,24.63
2019-01-23T08:54:17.285Z,26.40
2019-01-23T08:56:48.185Z,25.67
2019-01-23T08:59:19.095Z,24.10
2019-01-23T09:01:50.346Z,25.87
2019-01-23T09:04:21.351Z,25.43
2019-01-23T09:06:53.599Z,27.40
2019-01-23T09:09:24.909Z,26.63
2019-01-23T09:11:55.856Z,28.23
2019-01-23T09:14:26.937Z,28.57
2019-01-23T09:16:57.846Z,32.90
2019-01-23T09:19:28.758Z,29.73
2019-01-23T09:22:00.014Z,29.67
2019-01-23T09:24:30.956Z,29.30
2019-01-23T09:27:01.882Z,28.57
2019-01-23T09:29:32.839Z,28.70
2019-01-23T09:33:14.000Z,27.20
2019-01-23T09:36:21.621Z,24.47
2019-01-23T09:39:44.776Z,28.33
2019-01-23T09:43:05.978Z,29.00
2019-01-23T09:46:42.071Z,25.93
2019-01-23T09:49:47.683Z,26.67
2019-01-23T09:53:12.100Z,27.10
2019-01-23T09:55:43.556Z,24.67
2019-01-23T09:58:14.575Z,25.50
2019-01-23T10:00:45.590Z,25.90
2019-01-23T10:03:22.805Z,28.73
2019-01-23T10:05:49.471Z,27.70
2019-01-23T10:08:20.445Z,26.23
2019-01-23T10:10:51.407Z,26.37
2019-01-23T10:13:22.355Z,27.13
2019-01-23T10:16:13.565Z,24.93
2019-01-23T10:18:44.563Z,25.93
2019-01-23T10:21:16.288Z,25.20
2019-01-23T10:23:47.287Z,25.77
2019-01-23T10:26:18.228Z,25.40
2019-01-23T10:28:49.190Z,24.73
2019-01-23T10:31:20.173Z,26.47
2019-01-23T10:33:51.104Z,25.87
2019-01-23T10:36:22.074Z,25.47
2019-01-23T10:38:53.340Z,25.07
2019-01-23T10:41:24.310Z,27.43
2019-01-23T10:43:56.652Z,27.00
2019-01-23T10:46:27.645Z,27.40
2019-01-23T10:48:58.602Z,24.77
2019-01-23T10:51:29.561Z,24.43
2019-01-23T10:54:00.591Z,24.70
2019-01-23T10:56:31.573Z,28.23
2019-01-23T10:59:02.820Z,23.90
2019-01-23T11:01:34.135Z,25.30
2019-01-23T11:04:05.351Z,28.20
2019-01-23T11:06:36.357Z,28.00
2019-01-23T11:09:10.026Z,25.00
2019-01-23T11:11:40.989Z,26.77
2019-01-23T11:14:11.904Z,25.67
2019-01-23T11:16:42.956Z,25.47
2019-01-23T11:19:13.894Z,26.97
2019-01-23T11:21:45.148Z,28.33
2019-01-23T11:24:16.407Z,25.90
2019-01-23T11:26:47.326Z,25.80
2019-01-23T11:29:18.243Z,26.03
2019-01-23T11:31:49.317Z,25.37
2019-01-23T11:34:20.217Z,24.83
2019-01-23T11:36:51.445Z,27.63
2019-01-23T11:39:22.625Z,26.20
2019-01-23T11:41:53.652Z,28.97
2019-01-23T11:44:24.581Z,29.03
2019-01-23T11:46:55.653Z,26.17
2019-01-23T11:49:26.616Z,31.47
2019-01-23T11:51:57.575Z,29.20
2019-01-23T11:54:28.765Z,32.43
2019-01-23T11:56:59.667Z,31.30
2019-01-23T11:59:30.661Z,30.50
2019-01-23T12:02:01.779Z,33.30
2019-01-23T12:04:32.810Z,32.90
2019-01-23T12:07:03.736Z,33.77
2019-01-23T12:09:34.711Z,32.10
2019-01-23T12:12:05.748Z,32.97
2019-01-23T12:14:37.062Z,34.03
2019-01-23T12:17:08.039Z,31.60
2019-01-23T12:19:38.993Z,35.67
2019-01-23T12:22:10.134Z,32.23
2019-01-23T12:24:41.097Z,32.83
2019-01-23T12:27:12.370Z,34.37
2019-01-23T12:29:43.302Z,35.20
2019-01-23T12:32:14.579Z,35.10
2019-01-23T12:34:45.529Z,35.97
2019-01-23T12:37:16.474Z,37.10
2019-01-23T12:39:47.455Z,37.60
2019-01-23T12:42:18.387Z,35.40
2019-01-23T12:44:49.282Z,34.90
2019-01-23T12:47:20.272Z,35.07
2019-01-23T12:49:51.169Z,35.53
2019-01-23T12:52:22.251Z,34.77
2019-01-23T12:54:53.550Z,34.47
2019-01-23T12:57:24.501Z,34.67
2019-01-23T12:59:55.452Z,38.83
2019-01-23T13:02:26.467Z,38.77
2019-01-23T13:04:57.460Z,38.57
2019-01-23T13:07:28.654Z,39.60
2019-01-23T13:09:59.626Z,36.63
2019-01-23T13:12:31.681Z,37.30
2019-01-23T13:15:02.898Z,37.60
2019-01-23T13:17:33.927Z,35.73
2019-01-23T13:20:06.484Z,36.90
2019-01-23T13:22:37.388Z,39.90
2019-01-23T13:25:12.329Z,41.70
2019-01-23T13:27:43.532Z,42.53
2019-01-23T13:30:18.129Z,39.80
2019-01-23T13:32:49.343Z,39.80
2019-01-23T13:35:29.860Z,38.30
2019-01-23T13:38:01.038Z,39.57
2019-01-23T13:40:35.417Z,39.30
2019-01-23T13:43:08.331Z,41.70
2019-01-23T13:45:39.234Z,39.13
2019-01-23T13:48:11.816Z,43.97
2019-01-23T13:50:42.823Z,41.67
2019-01-23T13:53:16.137Z,40.50
2019-01-23T13:55:47.095Z,41.60
2019-01-23T13:58:18.654Z,44.00
2019-01-23T14:00:49.698Z,41.90
2019-01-23T14:03:36.439Z,43.70
2019-01-23T14:06:07.504Z,46.90
2019-01-23T14:08:38.447Z,43.87
2019-01-23T14:11:09.416Z,45.07
2019-01-23T14:13:40.447Z,46.90
2019-01-23T14:16:11.474Z,43.50
2019-01-23T14:18:42.390Z,45.60
2019-01-23T14:21:13.368Z,40.07
2019-01-23T14:23:44.312Z,39.60
2019-01-23T14:26:15.296Z,42.30
2019-01-23T14:28:46.289Z,42.33
2019-01-23T14:31:17.199Z,42.07
2019-01-23T14:33:48.141Z,41.70
2019-01-23T14:36:19.099Z,43.07
2019-01-23T14:38:50.040Z,41.43
2019-01-23T14:41:20.944Z,38.33
2019-01-23T14:43:51.923Z,41.60
2019-01-23T14:46:22.921Z,43.70
2019-01-23T14:48:53.854Z,46.27
2019-01-23T14:51:24.871Z,43.40
2019-01-23T14:53:55.785Z,39.57
2019-01-23T14:56:28.577Z,36.50
2019-01-23T14:58:59.592Z,43.00
2019-01-23T15:01:30.518Z,39.63
2019-01-23T15:04:01.500Z,41.30
2019-01-23T15:06:32.594Z,42.30
2019-01-23T15:09:05.313Z,41.67
2019-01-23T15:11:36.560Z,42.37
2019-01-23T15:14:07.889Z,40.77
2019-01-23T15:16:38.849Z,44.20
2019-01-23T15:19:10.100Z,43.63
2019-01-23T15:21:41.091Z,40.77
2019-01-23T15:24:12.008Z,41.07
2019-01-23T15:26:43.591Z,42.90
2019-01-23T15:29:14.524Z,39.90
2019-01-23T15:31:45.431Z,41.50
2019-01-23T15:34:16.394Z,42.57
2019-01-23T15:36:47.332Z,41.47
2019-01-23T15:39:18.373Z,41.50
2019-01-23T15:41:49.485Z,38.03
2019-01-23T15:44:20.450Z,38.47
2019-01-23T15:46:51.428Z,38.87
2019-01-23T15:49:22.747Z,38.60
2019-01-23T15:51:53.704Z,36.90
2019-01-23T15:54:24.844Z,35.77
2019-01-23T15:56:55.878Z,38.20
2019-01-23T15:59:27.181Z,38.83
2019-01-23T16:01:58.157Z,37.97
2019-01-23T16:04:29.156Z,39.00
2019-01-23T16:07:00.694Z,35.93
2019-01-23T16:09:31.609Z,35.60
2019-01-23T16:12:02.597Z,38.20
2019-01-23T16:14:33.533Z,37.40
2019-01-23T16:17:05.092Z,38.27
2019-01-23T16:19:36.349Z,36.53
2019-01-23T16:22:07.275Z,37.80
2019-01-23T16:24:38.872Z,35.70
2019-01-23T16:27:09.861Z,41.37
2019-01-23T16:29:41.083Z,38.60
2019-01-23T16:32:12.371Z,37.03
2019-01-23T16:34:43.392Z,38.53
2019-01-23T16:37:14.541Z,39.30
2019-01-23T16:39:45.527Z,41.30
2019-01-23T16:42:16.450Z,40.10
2019-01-23T16:44:47.426Z,40.17
2019-01-23T16:47:18.591Z,37.00
2019-01-23T16:49:49.542Z,41.23
2019-01-23T16:52:20.875Z,41.00
2019-01-23T16:54:51.897Z,38.73
2019-01-23T16:57:23.266Z,37.60
2019-01-23T16:59:54.963Z,37.03
2019-01-23T17:02:25.955Z,35.40
2019-01-23T17:04:56.971Z,30.17
2019-01-23T17:07:29.020Z,35.73
2019-01-23T17:09:59.956Z,34.40
2019-01-23T17:12:31.068Z,32.67
2019-01-23T17:15:02.078Z,37.87
2019-01-23T17:17:33.133Z,36.27
2019-01-23T17:20:04.210Z,33.50
2019-01-23T17:22:35.161Z,32.33
2019-01-23T17:25:07.869Z,32.90
2019-01-23T17:27:39.379Z,30.70
2019-01-23T17:30:11.617Z,34.87
2019-01-23T17:32:45.716Z,32.90
2019-01-23T17:35:17.803Z,35.67
2019-01-23T17:37:49.007Z,35.40
2019-01-23T17:40:20.898Z,34.00
2019-01-23T17:43:00.780Z,34.90
2019-01-23T17:45:35.384Z,33.57
2019-01-23T17:48:09.212Z,37.63
2019-01-23T17:50:40.285Z,34.30
2019-01-23T17:53:11.722Z,35.77
2019-01-23T17:55:44.538Z,36.10
2019-01-23T17:58:16.546Z,35.07
2019-01-23T18:00:58.094Z,39.47
2019-01-23T18:03:29.397Z,37.50
2019-01-23T18:06:00.371Z,35.67
2019-01-23T18:08:31.500Z,37.07
2019-01-23T18:11:02.505Z,39.00
2019-01-23T18:13:33.852Z,38.73
2019-01-23T18:16:14.538Z,41.20
2019-01-23T18:18:45.620Z,41.83
2019-01-23T18:21:16.544Z,39.07
2019-01-23T18:23:50.552Z,40.73
2019-01-23T18:26:21.872Z,40.60
2019-01-23T18:28:54.246Z,40.30
2019-01-23T18:31:56.540Z,40.03
2019-01-23T18:35:24.603Z,36.17
2019-01-23T18:38:37.644Z,42.20
2019-01-23T18:42:33.755Z,38.67
2019-01-23T18:45:40.461Z,37.90
2019-01-23T18:49:26.133Z,38.30
2019-01-23T18:52:16.229Z,40.97
2019-01-23T18:54:47.807Z,40.40
2019-01-23T18:57:23.634Z,42.27
2019-01-23T18:59:59.599Z,41.97
2019-01-23T19:02:31.366Z,40.50
2019-01-23T19:05:06.038Z,44.53
2019-01-23T19:07:37.324Z,45.93
2019-01-23T19:10:13.422Z,42.50
2019-01-23T19:12:46.737Z,46.03
2019-01-23T19:15:20.983Z,44.80
2019-01-23T19:17:52.039Z,41.47
2019-01-23T19:20:23.416Z,41.60
2019-01-23T19:22:54.371Z,42.73
2019-01-23T19:25:25.722Z,45.13
2019-01-23T19:27:59.171Z,45.60
2019-01-23T19:30:30.441Z,39.17
2019-01-23T19:33:01.576Z,45.67
2019-01-23T19:35:32.912Z,43.57
2019-01-23T19:38:05.624Z,42.97
2019-01-23T19:40:36.605Z,47.87
2019-01-23T19:43:08.292Z,44.30
2019-01-23T19:45:39.237Z,45.90
2019-01-23T19:48:11.944Z,43.87
2019-01-23T19:50:42.989Z,51.10
2019-01-23T19:53:15.951Z,44.67
2019-01-23T19:55:47.244Z,50.80
2019-01-23T19:58:18.245Z,50.67
2019-01-23T20:00:49.571Z,48.40
2019-01-23T20:03:20.844Z,49.87
2019-01-23T20:05:51.935Z,49.20
2019-01-23T20:08:23.213Z,51.50
2019-01-23T20:10:54.132Z,51.00
2019-01-23T20:13:25.116Z,51.40
2019-01-23T20:15:56.090Z,48.17
2019-01-23T20:18:27.599Z,49.13
2019-01-23T20:20:58.704Z,49.53
2019-01-23T20:23:29.754Z,53.00
2019-01-23T20:26:01.406Z,51.60
2019-01-23T20:28:32.392Z,53.20
2019-01-23T20:31:03.363Z,53.50
2019-01-23T20:33:34.679Z,52.77
2019-01-23T20:36:05.910Z,54.10
2019-01-23T20:38:36.876Z,55.47
2019-01-23T20:41:07.868Z,53.07
2019-01-23T20:43:39.554Z,56.10
2019-01-23T20:46:10.862Z,56.53
2019-01-23T20:48:43.045Z,51.50
2019-01-23T20:51:14.077Z,54.03
2019-01-23T20:53:45.351Z,52.53
2019-01-23T20:56:16.949Z,52.77
2019-01-23T20:58:48.235Z,52.13
2019-01-23T21:01:19.205Z,52.13
2019-01-23T21:03:50.201Z,53.27
2019-01-23T21:06:21.512Z,56.67
2019-01-23T21:08:52.473Z,54.30
2019-01-23T21:11:23.558Z,53.90
2019-01-23T21:13:54.546Z,55.63
2019-01-23T21:16:25.570Z,55.53
2019-01-23T21:18:56.574Z,55.53
2019-01-23T21:21:28.489Z,58.37
2019-01-23T21:23:59.426Z,52.87
2019-01-23T21:26:30.491Z,51.93
2019-01-23T21:29:01.450Z,54.60
2019-01-23T21:31:32.430Z,55.30
2019-01-23T21:34:03.406Z,55.90
2019-01-23T21:36:34.432Z,54.07
2019-01-23T21:39:08.897Z,52.63
2019-01-23T21:41:39.923Z,54.17
2019-01-23T21:44:10.850Z,51.63
2019-01-23T21:46:41.820Z,51.10
2019-01-23T21:49:13.066Z,53.83
2019-01-23T21:51:44.086Z,54.47
2019-01-23T21:54:15.041Z,58.00
2019-01-23T21:56:46.276Z,58.07
2019-01-23T21:59:17.301Z,59.93
2019-01-23T22:01:48.201Z,56.30
2019-01-23T22:04:19.186Z,54.73
2019-01-23T22:06:50.107Z,56.60
2019-01-23T22:09:21.062Z,52.30
2019-01-23T22:11:52.016Z,52.90
2019-01-23T22:14:22.956Z,56.03
2019-01-23T22:16:54.219Z,51.93
2019-01-23T22:19:25.202Z,53.40
2019-01-23T22:21:56.158Z,55.87
2019-01-23T22:24:27.224Z,56.83
2019-01-23T22:26:58.199Z,52.93
2019-01-23T22:29:29.155Z,46.77
2019-01-23T22:32:00.376Z,54.20
2019-01-23T22:34:31.717Z,53.97
2019-01-23T22:37:02.922Z,49.10
2019-01-23T22:39:33.870Z,55.83
2019-01-23T22:42:05.221Z,54.40
2019-01-23T22:44:36.756Z,54.67
2019-01-23T22:47:07.903Z,54.13
2019-01-23T22:49:39.229Z,54.00
2019-01-23T22:52:10.139Z,49.30
2019-01-23T22:54:41.148Z,50.13
2019-01-23T22:57:12.091Z,52.20
2019-01-23T22:59:43.051Z,53.87
2019-01-23T23:02:14.359Z,52.60
2019-01-23T23:04:45.380Z,57.13
2019-01-23T23:07:16.594Z,50.27
2019-01-23T23:09:47.526Z,56.67
2019-01-23T23:12:18.489Z,52.50
2019-01-23T23:14:49.438Z,49.27
2019-01-23T23:17:20.381Z,48.90
2019-01-23T23:19:51.356Z,48.17
2019-01-23T23:22:22.305Z,48.13
2019-01-23T23:24:53.261Z,42.97
2019-01-23T23:27:24.186Z,47.93
2019-01-23T23:29:55.108Z,37.37
2019-01-23T23:32:26.117Z,38.87
2019-01-23T23:34:57.094Z,41.20
2019-01-23T23:37:28.116Z,42.30
2019-01-23T23:39:59.239Z,36.93
2019-01-23T23:42:30.278Z,37.37
2019-01-23T23:47:32.188Z,36.57
2019-01-23T23:50:03.130Z,31.40
2019-01-23T23:52:34.114Z,34.27
2019-01-23T23:55:05.640Z,33.40
2019-01-23T23:57:36.620Z,31.50
